Terminal Aerodrome Forecast
Issued by NWS Portland, OR

Home | Current Version | Previous Version | Text Only | Print | Product List | Glossary On
Versions: 1 2 3 4 5 6 7 8 9 10 11 12 13 14 15 16 17 18 19 20 21 22 23 24 25 26 27 28 29 30
810
FTUS46 KPQR 030531
TAFTTD
TAF
KTTD 030531Z 0306/0406 26004KT P6SM VCSH SCT070 BKN150
     FM030800 VRB03KT P6SM VCSH BKN070 OVC120
     FM031400 VRB03KT P6SM SCT025 BKN060
     FM031900 28004KT P6SM SCT040 SCT070
     FM032300 28006KT P6SM -SHRA BKN050 BKN080=

USA.gov is the U.S. government's official web portal to all federal, state and local government web resources and services.